Time;durP1;ratioP1;P1;durP2;ratioP2;P2;SDS_P1;SDS_P2;PMS_P1;PMS_P2;Temp;Humidity;BMP_temperature;BMP_pressure;BME280_temperature;BME280_humidity;BME280_pressure;Samples;Min_cycle;Max_cycle;Signal;HPM_P1;HPM_P2
2023/09/20 00:01:32;;;;;;;;;;;14.80;99.90;;;;;;5081163;28;20051;-68
2023/09/20 00:04:00;;;;;;;7.93;2.05;;;14.80;99.90;;;;;;5075536;28;19916;-69
2023/09/20 00:06:26;;;;;;;13.23;2.30;;;14.80;99.90;;;;;;5069443;28;20548;-69
2023/09/20 00:08:52;;;;;;;14.18;2.33;;;14.80;99.90;;;;;;5076191;28;20111;-69
2023/09/20 00:11:18;;;;;;;;;;;14.80;99.90;;;;;;5074776;28;20885;-67
2023/09/20 00:13:45;;;;;;;9.57;2.30;;;14.80;99.90;;;;;;5079101;28;20683;-69
2023/09/20 00:16:10;;;;;;;7.07;2.03;;;14.80;99.90;;;;;;5079051;28;20444;-68
2023/09/20 00:18:36;;;;;;;;;;;14.80;99.90;;;;;;5068707;28;20053;-69
2023/09/20 00:21:02;;;;;;;7.20;1.80;;;14.80;99.90;;;;;;5058300;28;19916;-68
2023/09/20 00:23:28;;;;;;;;;;;14.80;99.90;;;;;;5063952;28;20110;-67
2023/09/20 00:25:54;;;;;;;10.50;2.72;;;14.80;99.90;;;;;;5060403;28;20376;-69
2023/09/20 00:28:19;;;;;;;;;;;14.80;99.90;;;;;;5062513;28;20040;-69
2023/09/20 00:30:45;;;;;;;6.32;2.05;;;14.80;99.90;;;;;;5060657;28;20375;-68
2023/09/20 00:33:11;;;;;;;;;;;14.80;99.90;;;;;;5065680;28;20037;-69
2023/09/20 00:35:39;;;;;;;8.02;2.42;;;14.80;99.90;;;;;;5060046;28;19928;-69
2023/09/20 00:38:05;;;;;;;9.82;2.53;;;14.80;99.90;;;;;;5066930;28;20696;-69
2023/09/20 00:40:32;;;;;;;8.48;2.55;;;14.80;99.90;;;;;;5060790;28;20047;-68
2023/09/20 00:42:58;;;;;;;7.40;2.00;;;14.80;99.90;;;;;;5063837;28;20041;-69
2023/09/20 00:45:23;;;;;;;;;;;14.80;99.90;;;;;;5063422;28;20119;-69
2023/09/20 00:47:57;;;;;;;6.15;2.05;;;14.80;99.90;;;;;;5064906;28;19995;-69
2023/09/20 00:50:26;;;;;;;12.30;2.90;;;14.90;99.90;;;;;;5060338;28;20029;-67
2023/09/20 00:52:54;;;;;;;6.57;1.63;;;14.90;99.90;;;;;;5062895;28;20119;-69
2023/09/20 00:55:24;;;;;;;8.80;2.45;;;14.90;99.90;;;;;;5064625;28;20040;-69
2023/09/20 00:57:52;;;;;;;9.35;1.95;;;14.90;99.90;;;;;;5064679;28;20044;-68
2023/09/20 01:00:29;;;;;;;9.10;2.33;;;14.90;99.90;;;;;;5059856;28;20046;-69
2023/09/20 01:02:57;;;;;;;11.50;2.05;;;14.90;99.90;;;;;;5063673;28;20044;-67
2023/09/20 01:05:25;;;;;;;10.30;2.22;;;15.00;99.90;;;;;;5063864;28;20051;-68
2023/09/20 01:07:56;;;;;;;5.75;2.03;;;15.00;99.90;;;;;;5064204;28;20048;-69
2023/09/20 01:10:23;;;;;;;9.95;2.20;;;15.00;99.90;;;;;;5058423;28;20044;-67
2023/09/20 01:12:59;;;;;;;10.90;2.70;;;15.00;99.90;;;;;;5061429;28;20538;-68
2023/09/20 01:15:26;;;;;;;12.07;2.97;;;15.00;99.90;;;;;;5063969;28;20134;-67
2023/09/20 01:17:57;;;;;;;6.70;1.80;;;15.00;99.90;;;;;;5058421;28;20052;-70
2023/09/20 01:20:26;;;;;;;7.55;2.28;;;15.00;99.90;;;;;;5060237;28;20044;-69
2023/09/20 01:22:59;;;;;;;8.90;2.83;;;15.00;99.90;;;;;;5058084;28;20047;-69
2023/09/20 01:25:27;;;;;;;11.07;2.05;;;14.90;99.90;;;;;;5065551;28;20064;-68
2023/09/20 01:27:55;;;;;;;10.07;2.30;;;14.90;99.90;;;;;;5061804;28;20709;-69
2023/09/20 01:30:25;;;;;;;7.13;1.90;;;14.90;99.90;;;;;;5057446;28;20614;-69
2023/09/20 01:32:54;;;;;;;9.48;2.10;;;14.90;99.90;;;;;;5061742;28;20068;-69
2023/09/20 01:35:23;;;;;;;6.43;1.70;;;14.90;99.90;;;;;;5063131;28;20134;-69
2023/09/20 01:37:52;;;;;;;6.95;2.40;;;14.90;99.90;;;;;;5059804;28;20075;-68
2023/09/20 01:40:23;;;;;;;9.15;1.83;;;14.90;99.90;;;;;;5055844;28;20033;-68
2023/09/20 01:42:49;;;;;;;9.52;1.90;;;14.90;99.90;;;;;;5062272;28;20041;-68
2023/09/20 01:45:20;;;;;;;7.25;1.95;;;14.90;99.90;;;;;;5061338;28;20052;-69
2023/09/20 01:47:49;;;;;;;6.78;2.08;;;14.90;99.90;;;;;;5064922;28;20040;-69
2023/09/20 01:50:24;;;;;;;5.97;2.08;;;14.90;99.90;;;;;;5060368;28;20560;-67
2023/09/20 01:52:52;;;;;;;6.30;1.70;;;14.90;99.90;;;;;;5058188;28;20041;-68
2023/09/20 01:55:22;;;;;;;13.02;2.75;;;14.80;99.90;;;;;;5062092;28;20040;-66
2023/09/20 01:57:51;;;;;;;9.13;2.17;;;14.90;99.90;;;;;;5057486;28;20507;-68
2023/09/20 02:00:22;;;;;;;7.32;2.15;;;14.80;99.90;;;;;;5062080;28;20166;-69
2023/09/20 02:02:54;;;;;;;6.65;1.83;;;14.80;99.90;;;;;;5064032;28;20115;-67
2023/09/20 02:05:24;;;;;;;6.82;1.90;;;14.80;99.90;;;;;;5062923;28;20051;-67
2023/09/20 02:07:52;;;;;;;7.80;2.40;;;14.80;99.90;;;;;;5061862;28;20097;-67
2023/09/20 02:10:18;;;;;;;7.72;1.88;;;14.80;99.90;;;;;;5062177;28;20143;-69
2023/09/20 02:12:51;;;;;;;8.35;2.00;;;14.80;99.90;;;;;;5062162;28;20040;-68
2023/09/20 02:15:18;;;;;;;9.15;2.00;;;14.80;99.90;;;;;;5060399;28;20091;-66
2023/09/20 02:17:47;;;;;;;7.43;1.80;;;14.80;99.90;;;;;;5054142;28;20103;-68
2023/09/20 02:20:19;;;;;;;6.45;1.88;;;14.80;99.90;;;;;;5052238;28;20127;-67
2023/09/20 02:22:47;;;;;;;10.10;2.00;;;14.80;99.90;;;;;;5056200;28;20753;-68
2023/09/20 02:25:14;;;;;;;6.03;2.03;;;14.80;99.90;;;;;;5061082;28;20063;-68
2023/09/20 02:27:41;;;;;;;7.38;2.10;;;14.80;99.90;;;;;;5049149;28;20040;-68
2023/09/20 02:30:09;;;;;;;11.50;2.20;;;14.80;99.90;;;;;;5060218;28;20032;-67
2023/09/20 02:32:36;;;;;;;7.13;1.88;;;14.70;99.90;;;;;;5056506;28;20116;-67
2023/09/20 02:35:03;;;;;;;10.20;2.03;;;14.70;99.90;;;;;;5063300;28;20063;-68
2023/09/20 02:37:30;;;;;;;10.18;2.30;;;14.70;99.90;;;;;;5060873;28;20093;-68
2023/09/20 02:39:56;;;;;;;9.85;2.20;;;14.70;99.90;;;;;;5064080;28;20042;-69
2023/09/20 02:42:23;;;;;;;;;;;14.70;99.90;;;;;;5060848;28;20024;-68
2023/09/20 02:44:50;;;;;;;7.55;2.08;;;14.60;99.90;;;;;;5062278;28;19919;-69
2023/09/20 02:47:18;;;;;;;7.32;2.10;;;14.70;99.90;;;;;;5058992;28;20129;-68
2023/09/20 02:49:51;;;;;;;8.45;2.25;;;14.60;99.90;;;;;;5052991;28;20031;-69
2023/09/20 02:52:17;;;;;;;12.68;2.67;;;14.60;99.90;;;;;;5059249;28;20528;-69
2023/09/20 02:54:43;;;;;;;7.05;2.03;;;14.60;99.90;;;;;;5052548;28;20036;-67
2023/09/20 02:57:12;;;;;;;18.52;2.75;;;14.60;99.90;;;;;;5061296;28;20136;-67
2023/09/20 02:59:39;;;;;;;8.20;1.90;;;14.60;99.90;;;;;;5064355;28;20624;-69
2023/09/20 03:02:05;;;;;;;8.50;2.15;;;14.70;99.90;;;;;;5061894;28;20040;-67
2023/09/20 03:04:32;;;;;;;10.50;2.28;;;14.60;99.90;;;;;;5060754;28;20028;-68
2023/09/20 03:06:57;;;;;;;10.75;2.38;;;14.70;99.90;;;;;;5059470;28;20668;-69
2023/09/20 03:09:26;;;;;;;;;;;14.70;99.90;;;;;;5054749;28;20094;-68
2023/09/20 03:11:53;;;;;;;10.20;2.28;;;14.70;99.90;;;;;;5057029;28;19916;-69
2023/09/20 03:14:18;;;;;;;6.18;2.42;;;14.70;99.90;;;;;;5056725;28;20037;-70
2023/09/20 03:16:46;;;;;;;;;;;14.70;99.90;;;;;;5053042;28;20506;-67
2023/09/20 03:19:14;;;;;;;;;;;14.70;99.90;;;;;;5054861;28;19974;-68
2023/09/20 03:21:41;;;;;;;8.75;2.28;;;14.70;99.90;;;;;;5052918;28;20446;-68
2023/09/20 03:24:07;;;;;;;10.38;2.10;;;14.70;99.90;;;;;;5050864;28;20036;-69
2023/09/20 03:26:35;;;;;;;10.18;2.35;;;14.70;99.90;;;;;;5061564;28;20102;-68
2023/09/20 03:29:04;;;;;;;8.10;2.92;;;14.60;99.90;;;;;;5061561;28;20072;-67
2023/09/20 03:31:33;;;;;;;13.65;2.13;;;14.60;99.90;;;;;;5060624;28;20041;-68
2023/09/20 03:33:59;;;;;;;5.78;1.85;;;14.60;99.90;;;;;;5062380;28;20036;-68
2023/09/20 03:36:26;;;;;;;8.23;2.22;;;14.60;99.90;;;;;;5059512;28;20043;-68
2023/09/20 03:38:57;;;;;;;7.20;2.05;;;14.60;99.90;;;;;;5059464;28;20036;-68
2023/09/20 03:41:27;;;;;;;6.97;1.92;;;14.60;99.90;;;;;;5061262;28;20119;-66
2023/09/20 03:43:52;;;;;;;5.90;2.00;;;14.50;99.90;;;;;;5060055;28;20543;-67
2023/09/20 03:46:18;;;;;;;;;;;14.50;99.90;;;;;;5060226;28;20048;-68
2023/09/20 03:48:43;;;;;;;7.63;2.67;;;14.50;99.90;;;;;;5063670;28;19963;-68
2023/09/20 03:51:15;;;;;;;7.78;2.85;;;14.50;99.90;;;;;;5058763;28;20036;-68
2023/09/20 03:53:44;;;;;;;7.97;1.80;;;14.50;99.90;;;;;;5062803;28;20042;-67
2023/09/20 03:56:11;;;;;;;13.05;2.75;;;14.40;99.90;;;;;;5066536;28;20032;-68
2023/09/20 03:58:37;;;;;;;11.00;2.65;;;14.40;99.90;;;;;;5064473;28;20249;-68
2023/09/20 04:01:03;;;;;;;5.78;1.98;;;14.40;99.90;;;;;;5065189;28;20028;-68
2023/09/20 04:03:28;;;;;;;;;;;14.40;99.90;;;;;;5062971;28;20056;-67
2023/09/20 04:05:57;;;;;;;7.97;1.75;;;14.40;99.90;;;;;;5065886;28;19932;-67
2023/09/20 04:08:23;;;;;;;7.68;2.33;;;14.40;99.90;;;;;;5063033;28;20101;-69
2023/09/20 04:10:48;;;;;;;;;;;14.40;99.90;;;;;;5065847;28;20496;-68
2023/09/20 04:13:14;;;;;;;9.02;2.17;;;14.40;99.90;;;;;;5058992;28;20283;-66
2023/09/20 04:15:44;;;;;;;8.18;2.03;;;14.40;99.90;;;;;;5062954;28;20127;-67
2023/09/20 04:18:10;;;;;;;8.95;2.13;;;14.40;99.90;;;;;;5064404;28;20036;-68
2023/09/20 04:20:35;;;;;;;;;;;14.40;99.90;;;;;;5066113;28;20605;-68
2023/09/20 04:23:02;;;;;;;6.40;1.83;;;14.40;99.90;;;;;;5065170;28;20290;-66
2023/09/20 04:25:28;;;;;;;8.65;2.05;;;14.40;99.90;;;;;;5060578;28;20044;-68
2023/09/20 04:27:53;;;;;;;;;;;14.40;99.90;;;;;;5064916;28;20036;-67
2023/09/20 04:30:19;;;;;;;8.02;2.55;;;14.30;99.90;;;;;;5059397;28;19991;-68
2023/09/20 04:32:44;;;;;;;7.15;2.30;;;14.40;99.90;;;;;;5056786;28;20045;-67
2023/09/20 04:35:10;;;;;;;;;;;14.40;99.90;;;;;;5060181;28;20046;-68
2023/09/20 04:37:36;;;;;;;10.60;2.38;;;14.40;99.90;;;;;;5065361;28;20036;-67
2023/09/20 04:40:02;;;;;;;;;;;14.40;99.90;;;;;;5060824;28;20043;-67
2023/09/20 04:42:32;;;;;;;8.35;2.00;;;14.40;99.90;;;;;;5065380;28;19920;-68
2023/09/20 04:44:59;;;;;;;10.57;2.35;;;14.40;99.90;;;;;;5065760;28;20047;-67
2023/09/20 04:47:24;;;;;;;8.57;2.13;;;14.40;99.90;;;;;;5062346;28;20044;-68
2023/09/20 04:49:51;;;;;;;;;;;14.40;99.90;;;;;;5062892;28;20058;-67
2023/09/20 04:52:16;;;;;;;5.28;1.75;;;14.40;99.90;;;;;;5064514;28;20050;-67
2023/09/20 04:54:44;;;;;;;;;;;14.40;99.90;;;;;;5064640;28;20051;-68
2023/09/20 04:57:12;;;;;;;;;;;14.40;99.90;;;;;;5065049;28;19922;-67
2023/09/20 04:59:39;;;;;;;6.07;1.80;;;14.40;99.90;;;;;;5063574;28;19924;-66
2023/09/20 05:02:05;;;;;;;11.90;2.67;;;14.40;99.90;;;;;;5058720;28;20102;-66
2023/09/20 05:04:34;;;;;;;;;;;14.40;99.90;;;;;;5062677;28;20045;-66
2023/09/20 05:07:06;;;;;;;9.52;2.22;;;14.40;99.90;;;;;;5063637;28;20019;-67
2023/09/20 05:09:34;;;;;;;3.30;1.48;;;14.30;99.90;;;;;;5060149;28;20527;-67
2023/09/20 05:12:00;;;;;;;5.00;1.80;;;14.30;99.90;;;;;;5059431;28;20095;-68
2023/09/20 05:14:25;;;;;;;;;;;14.30;99.90;;;;;;5053855;28;20062;-68
2023/09/20 05:16:51;;;;;;;5.15;1.52;;;14.30;99.90;;;;;;5061573;28;19966;-68
2023/09/20 05:19:16;;;;;;;5.60;1.60;;;14.30;99.90;;;;;;5055607;28;20044;-67
2023/09/20 05:21:42;;;;;;;;;;;14.30;99.90;;;;;;5056693;28;20060;-67
2023/09/20 05:24:08;;;;;;;8.30;1.83;;;14.30;99.90;;;;;;5051347;28;19959;-69
2023/09/20 05:26:33;;;;;;;;;;;14.30;99.90;;;;;;5058599;28;20044;-68
2023/09/20 05:28:59;;;;;;;8.02;1.75;;;14.30;99.90;;;;;;5059011;28;19920;-68
2023/09/20 05:31:26;;;;;;;;;;;14.30;99.90;;;;;;5058257;28;20397;-68
2023/09/20 05:33:55;;;;;;;6.15;1.92;;;14.30;99.90;;;;;;5055827;28;19963;-68
2023/09/20 05:36:29;;;;;;;3.78;1.67;;;14.30;99.90;;;;;;5047795;28;20060;-68
2023/09/20 05:38:56;;;;;;;5.07;1.85;;;14.30;99.90;;;;;;5050348;28;20045;-69
2023/09/20 05:41:33;;;;;;;6.60;1.63;;;14.40;99.90;;;;;;5048930;28;20048;-68
2023/09/20 05:44:04;;;;;;;5.95;1.58;;;14.30;99.90;;;;;;5046627;28;20702;-68
2023/09/20 05:46:40;;;;;;;5.07;1.50;;;14.30;99.90;;;;;;5047353;28;20059;-68
2023/09/20 05:49:09;;;;;;;11.18;2.13;;;14.40;99.90;;;;;;5046014;28;20494;-68
2023/09/20 05:51:38;;;;;;;6.70;1.50;;;14.40;99.90;;;;;;5047977;28;20123;-69
2023/09/20 05:54:04;;;;;;;4.80;1.90;;;14.50;99.90;;;;;;5056395;28;20037;-68
2023/09/20 05:56:29;;;;;;;;;;;14.50;99.90;;;;;;5050987;28;20043;-68
2023/09/20 05:58:55;;;;;;;6.88;1.60;;;14.50;99.90;;;;;;5063177;28;20390;-67
2023/09/20 06:01:23;;;;;;;6.13;1.77;;;14.50;99.90;;;;;;5048305;28;20129;-67
2023/09/20 06:03:49;;;;;;;2.90;1.48;;;14.50;99.90;;;;;;5056445;28;20554;-70
2023/09/20 06:09:24;;;;;;;3.78;1.73;;;14.60;99.90;;;;;;5044642;28;19916;-69
2023/09/20 06:11:50;;;;;;;;;;;14.60;99.90;;;;;;5059431;28;20043;-67
2023/09/20 06:14:16;;;;;;;5.13;1.80;;;14.70;99.90;;;;;;5063526;28;19935;-69
2023/09/20 06:16:42;;;;;;;;;;;14.70;99.90;;;;;;5065113;28;20522;-67
2023/09/20 06:19:08;;;;;;;5.78;1.45;;;14.80;99.90;;;;;;5049762;28;19924;-70
2023/09/20 06:21:34;;;;;;;4.53;1.45;;;14.90;99.90;;;;;;5064159;28;20476;-70
2023/09/20 06:24:01;;;;;;;;;;;14.90;99.90;;;;;;5062565;28;20033;-66
2023/09/20 06:26:28;;;;;;;;;;;15.00;99.90;;;;;;5047404;28;20454;-66
2023/09/20 06:28:55;;;;;;;10.95;2.00;;;15.10;99.90;;;;;;5061569;28;19981;-67
2023/09/20 06:31:20;;;;;;;3.15;1.48;;;15.10;99.90;;;;;;5055176;28;20033;-66
2023/09/20 06:33:49;;;;;;;;;;;15.20;99.90;;;;;;5054554;28;20099;-64
2023/09/20 06:36:17;;;;;;;4.40;1.40;;;15.30;99.90;;;;;;5051245;28;19917;-66
2023/09/20 06:38:43;;;;;;;3.95;1.35;;;15.30;99.90;;;;;;5052023;28;20036;-64
2023/09/20 06:41:08;;;;;;;;;;;15.40;99.90;;;;;;5061401;28;20037;-65
2023/09/20 06:43:36;;;;;;;4.43;1.55;;;15.30;99.90;;;;;;5049430;28;19920;-67
2023/09/20 06:46:03;;;;;;;7.07;1.67;;;15.40;99.90;;;;;;5049961;28;20051;-69
2023/09/20 06:48:29;;;;;;;3.63;1.80;;;15.40;99.90;;;;;;5060206;28;20039;-63
2023/09/20 06:50:55;;;;;;;2.95;1.38;;;15.50;99.90;;;;;;5047357;28;20033;-67
2023/09/20 06:53:23;;;;;;;;;;;15.50;99.90;;;;;;5055735;28;20036;-68
2023/09/20 06:55:50;;;;;;;4.70;1.80;;;15.60;99.90;;;;;;5055510;28;19951;-67
2023/09/20 06:58:16;;;;;;;4.35;1.25;;;15.60;99.90;;;;;;5064120;28;20131;-67
2023/09/20 07:21:02;;;;;;;5.45;1.83;;;16.10;99.90;;;;;;5044674;28;20480;-67
2023/09/20 07:23:31;;;;;;;4.03;1.67;;;16.20;99.90;;;;;;5046977;28;20048;-68
2023/09/20 07:25:57;;;;;;;4.15;1.63;;;16.30;99.90;;;;;;5049881;28;20048;-68
2023/09/20 07:28:31;;;;;;;;;;;16.40;99.90;;;;;;5063758;28;20044;-67
2023/09/20 07:50:51;;;;;;;3.65;1.20;;;16.70;99.90;;;;;;4971906;28;20489;-63
2023/09/20 07:53:19;;;;;;;5.13;1.30;;;16.70;99.90;;;;;;4984324;28;20031;-63
2023/09/20 07:55:56;;;;;;;6.22;2.40;;;16.70;99.90;;;;;;4983351;28;20062;-63
2023/09/20 07:58:21;;;;;;;3.47;1.00;;;16.60;99.90;;;;;;4976269;28;20478;-63
2023/09/20 08:00:49;;;;;;;;;;;16.60;99.90;;;;;;4970055;28;20050;-62
2023/09/20 08:03:15;;;;;;;3.72;1.33;;;16.70;99.90;;;;;;4979712;28;19922;-69
2023/09/20 08:05:43;;;;;;;;;;;16.80;99.90;;;;;;4972848;28;20061;-62
2023/09/20 08:08:09;;;;;;;6.63;1.30;;;17.10;99.90;;;;;;4967268;28;20417;-63
2023/09/20 08:10:36;;;;;;;;;;;17.20;99.90;;;;;;4968723;28;20053;-63
2023/09/20 08:13:03;;;;;;;3.13;1.00;;;17.40;99.90;;;;;;4973902;28;19918;-64
2023/09/20 08:15:32;;;;;;;3.78;0.98;;;17.90;99.90;;;;;;4971701;28;20086;-63
2023/09/20 08:20:42;;;;;;;3.83;1.38;;;18.70;99.90;;;;;;4979956;28;20046;-63
2023/09/20 08:59:54;;;;;;;6.72;0.90;;;18.30;99.90;;;;;;4967145;28;20103;-64
2023/09/20 09:02:30;;;;;;;4.90;0.98;;;18.30;99.90;;;;;;4978032;23;20065;-64
2023/09/20 09:04:57;;;;;;;4.43;0.90;;;18.30;99.90;;;;;;4967181;28;20681;-64
2023/09/20 09:07:42;;;;;;;3.65;0.88;;;18.20;99.90;;;;;;4959190;28;20033;-63
2023/09/20 09:10:35;;;;;;;1.10;0.73;;;18.30;99.90;;;;;;4910082;28;20274;-64
2023/09/20 09:13:10;;;;;;;3.13;1.00;;;18.30;99.90;;;;;;4962150;28;20133;-64
2023/09/20 09:15:48;;;;;;;3.03;0.88;;;18.30;99.90;;;;;;4955255;28;20204;-63
2023/09/20 09:18:21;;;;;;;3.17;0.98;;;18.20;99.90;;;;;;4962020;28;20132;-63
2023/09/20 09:20:47;;;;;;;3.10;0.93;;;18.30;99.90;;;;;;4949662;28;20060;-64
2023/09/20 09:23:35;;;;;;;3.00;1.20;;;18.30;99.90;;;;;;4948639;28;20329;-64
2023/09/20 09:26:02;;;;;;;1.67;0.87;;;18.40;99.90;;;;;;4956257;28;20165;-64
2023/09/20 09:28:38;;;;;;;6.82;1.02;;;18.60;99.90;;;;;;4963596;28;20288;-63
2023/09/20 09:31:14;;;;;;;2.78;0.80;;;18.70;99.90;;;;;;4951178;28;20667;-63
2023/09/20 09:33:47;;;;;;;2.28;0.80;;;18.70;99.90;;;;;;4968545;28;20186;-63
2023/09/20 09:36:13;;;;;;;1.83;0.85;;;18.80;99.90;;;;;;4959573;28;20726;-63
2023/09/20 09:38:48;;;;;;;2.55;0.50;;;18.90;99.90;;;;;;4971573;28;20049;-63
2023/09/20 09:41:18;;;;;;;;;;;19.10;99.90;;;;;;4962672;28;20042;-63
2023/09/20 09:43:59;;;;;;;4.50;0.90;;;19.20;99.90;;;;;;4952557;28;20088;-63
2023/09/20 09:46:41;;;;;;;2.45;1.17;;;19.30;99.90;;;;;;4954745;23;20046;-64
2023/09/20 09:49:11;;;;;;;3.17;0.90;;;19.20;99.90;;;;;;4960636;23;20053;-63
2023/09/20 09:51:52;;;;;;;3.72;0.93;;;19.20;99.90;;;;;;4951564;28;20034;-63
2023/09/20 09:54:20;;;;;;;3.03;0.90;;;19.30;99.90;;;;;;4959949;28;20528;-64
2023/09/20 09:56:54;;;;;;;2.70;0.95;;;19.20;99.90;;;;;;4963070;28;20054;-63
2023/09/20 09:59:20;;;;;;;;;;;19.20;99.90;;;;;;4946336;28;20097;-63
2023/09/20 10:02:00;;;;;;;2.65;0.90;;;19.10;99.90;;;;;;4963215;23;19926;-63
2023/09/20 10:04:26;;;;;;;2.20;0.93;;;19.30;99.90;;;;;;4978495;23;20856;-65
2023/09/20 10:09:49;;;;;;;3.22;0.82;;;19.30;99.90;;;;;;4966766;28;20057;-66
2023/09/20 10:12:30;;;;;;;4.43;1.00;;;19.40;99.90;;;;;;4989845;23;20842;-64
2023/09/20 10:15:01;;;;;;;2.03;0.90;;;19.60;99.90;;;;;;4979922;23;20045;-65
2023/09/20 10:17:56;;;;;;;1.48;0.80;;;19.90;99.90;;;;;;4972119;28;20792;-64
2023/09/20 10:21:10;;;;;;;3.58;0.80;;;20.00;99.90;;;;;;4964106;28;20045;-62
2023/09/20 10:23:58;;;;;;;1.65;0.75;;;19.90;99.90;;;;;;4904341;28;20876;-63
2023/09/20 10:26:43;;;;;;;1.73;0.60;;;19.80;99.90;;;;;;4849357;29;20059;-63
2023/09/20 10:29:21;;;;;;;2.47;0.63;;;19.70;99.90;;;;;;4870599;29;20495;-63
2023/09/20 10:31:53;;;;;;;2.92;0.88;;;19.70;99.90;;;;;;4898627;28;20050;-62
2023/09/20 10:34:34;;;;;;;3.55;1.10;;;19.40;99.90;;;;;;4940427;28;20112;-63
2023/09/20 10:40:51;;;;;;;3.17;0.87;;;19.10;99.90;;;;;;4934152;28;20065;-61
2023/09/20 10:43:36;;;;;;;2.13;0.90;;;19.10;99.90;;;;;;4925157;28;20421;-64
2023/09/20 10:56:05;;;;;;;2.08;0.90;;;19.30;99.90;;;;;;4877314;23;20161;-66
2023/09/20 10:58:42;;;;;;;0.97;0.57;;;19.30;99.90;;;;;;4958192;28;20210;-66
2023/09/20 11:04:42;;;;;;;3.58;0.90;;;19.20;99.90;;;;;;5266298;23;20068;-67
2023/09/20 11:07:34;;;;;;;2.33;0.68;;;19.30;99.90;;;;;;4986461;28;20116;-69
2023/09/20 11:10:23;;;;;;;2.22;0.70;;;19.40;99.90;;;;;;4992051;28;20065;-72
2023/09/20 11:13:11;;;;;;;7.28;1.00;;;19.50;99.90;;;;;;4993138;28;20045;-72
2023/09/20 11:16:02;;;;;;;3.90;1.23;;;19.30;99.90;;;;;;4982552;28;20036;-72
2023/09/20 11:18:48;;;;;;;2.42;0.90;;;19.20;99.90;;;;;;4992032;28;20041;-70
2023/09/20 11:21:34;;;;;;;2.35;1.00;;;19.30;99.90;;;;;;4992099;28;20083;-71
2023/09/20 11:24:20;;;;;;;1.92;1.05;;;19.60;99.90;;;;;;4992511;28;20107;-67
2023/09/20 11:27:06;;;;;;;2.25;0.90;;;19.90;99.90;;;;;;4993134;28;20037;-66
2023/09/20 11:29:48;;;;;;;3.15;1.20;;;20.00;99.90;;;;;;4983591;28;20152;-64
2023/09/20 11:32:16;;;;;;;2.42;0.90;;;19.90;99.90;;;;;;5003158;28;20050;-63
2023/09/20 11:34:47;;;;;;;2.83;0.90;;;20.00;99.90;;;;;;5005550;28;20053;-62
2023/09/20 11:37:19;;;;;;;2.35;1.00;;;20.10;99.90;;;;;;5008779;28;20493;-62
2023/09/20 11:39:47;;;;;;;4.65;1.10;;;20.10;99.90;;;;;;5014033;28;20054;-61
2023/09/20 11:42:27;;;;;;;4.47;0.95;;;19.90;99.90;;;;;;5015102;28;20038;-62
2023/09/20 11:45:03;;;;;;;3.10;0.70;;;19.80;99.90;;;;;;5007528;28;20045;-65
2023/09/20 11:51:22;;;;;;;3.33;1.08;;;19.50;99.90;;;;;;5980753;23;19920;-63
2023/09/20 11:53:52;;;;;;;3.63;1.23;;;19.30;99.90;;;;;;4914014;28;20039;-63
2023/09/20 11:56:29;;;;;;;4.60;1.10;;;19.30;99.90;;;;;;4937245;28;20062;-63
2023/09/20 11:59:18;;;;;;;1.45;0.95;;;19.30;99.90;;;;;;4913425;28;20426;-62
2023/09/20 12:01:49;;;;;;;3.33;1.35;;;19.30;99.90;;;;;;4923821;28;20069;-62
2023/09/20 12:04:34;;;;;;;4.80;1.75;;;19.40;99.90;;;;;;4946988;28;20041;-64
2023/09/20 12:07:00;;;;;;;;;;;19.40;99.90;;;;;;4943747;28;20074;-65
2023/09/20 12:09:27;;;;;;;2.35;1.20;;;19.30;99.90;;;;;;4929434;28;20101;-63
2023/09/20 12:11:58;;;;;;;3.47;1.13;;;19.20;99.90;;;;;;4930691;28;20042;-62
2023/09/20 12:14:41;;;;;;;3.42;0.98;;;19.20;99.90;;;;;;4961204;28;21040;-62
2023/09/20 12:17:25;;;;;;;2.30;1.00;;;19.20;99.90;;;;;;4984177;23;20061;-63
2023/09/20 12:19:50;;;;;;;;;;;19.20;99.90;;;;;;4980334;28;20042;-62
2023/09/20 12:22:24;;;;;;;3.50;1.38;;;19.30;99.90;;;;;;4949399;28;20373;-63
2023/09/20 12:24:51;;;;;;;;;;;19.40;99.90;;;;;;4950183;28;20030;-63
2023/09/20 12:27:23;;;;;;;2.92;1.33;;;19.50;99.90;;;;;;4960849;28;20445;-62
2023/09/20 12:29:49;;;;;;;4.32;1.30;;;19.60;99.90;;;;;;4939545;28;21150;-62
2023/09/20 12:32:33;;;;;;;5.05;1.55;;;19.70;99.90;;;;;;4915216;28;20128;-60
2023/09/20 12:35:28;;;;;;;3.80;1.42;;;19.60;99.90;;;;;;4887725;29;20055;-63
2023/09/20 12:37:57;;;;;;;5.93;1.50;;;19.60;99.90;;;;;;4898840;29;21497;-62
2023/09/20 12:40:24;;;;;;;2.88;1.17;;;19.50;99.90;;;;;;4882422;29;21026;-62
2023/09/20 12:42:51;;;;;;;17.45;1.40;;;19.40;99.90;;;;;;4897420;29;20151;-60
2023/09/20 12:45:26;;;;;;;2.40;1.40;;;19.50;99.90;;;;;;4969159;23;20050;-62
2023/09/20 12:47:52;;;;;;;8.95;1.60;;;19.50;99.90;;;;;;4958881;28;20042;-62
2023/09/20 12:50:41;;;;;;;2.50;1.10;;;19.60;99.90;;;;;;4949643;23;20051;-61
2023/09/20 12:53:25;;;;;;;4.82;1.58;;;19.50;99.90;;;;;;4955323;28;20085;-62
2023/09/20 12:56:04;;;;;;;4.00;1.50;;;19.60;99.90;;;;;;4943098;28;20034;-62
2023/09/20 12:58:44;;;;;;;4.28;1.75;;;19.50;99.90;;;;;;4950238;28;20050;-62
2023/09/20 13:01:34;;;;;;;4.68;1.30;;;19.30;99.90;;;;;;4961675;23;20042;-66
2023/09/20 13:04:17;;;;;;;5.53;1.48;;;19.30;99.90;;;;;;4953412;28;20043;-64
2023/09/20 13:07:04;;;;;;;2.53;1.02;;;19.30;99.90;;;;;;4942106;28;20104;-66
2023/09/20 13:09:39;;;;;;;5.30;1.83;;;19.20;99.90;;;;;;4930277;28;21149;-69
2023/09/20 13:12:24;;;;;;;3.53;1.20;;;19.10;99.90;;;;;;4928934;28;20082;-69
2023/09/20 13:14:53;;;;;;;5.13;2.20;;;19.00;99.90;;;;;;4933692;28;20558;-70
2023/09/20 13:17:24;;;;;;;4.70;1.70;;;19.00;99.90;;;;;;4924594;28;20076;-68
2023/09/20 13:19:49;;;;;;;4.78;1.27;;;18.90;99.90;;;;;;4927387;28;20067;-64
2023/09/20 13:25:39;;;;;;;4.10;1.50;;;18.90;99.90;;;;;;5475727;23;20390;-68
2023/09/20 13:28:07;;;;;;;3.83;1.48;;;18.90;99.90;;;;;;4999332;28;20096;-67
2023/09/20 13:30:35;;;;;;;2.42;1.45;;;18.90;99.90;;;;;;5002225;28;20049;-67
2023/09/20 13:33:01;;;;;;;1.77;1.10;;;19.00;99.90;;;;;;5003151;28;20604;-64
2023/09/20 13:35:27;;;;;;;4.20;1.42;;;19.00;99.90;;;;;;5005194;28;20038;-64
2023/09/20 13:37:53;;;;;;;;;;;19.00;99.90;;;;;;5003278;28;20400;-64
2023/09/20 13:40:23;;;;;;;4.88;1.80;;;19.00;99.90;;;;;;4995475;28;19918;-65
2023/09/20 13:42:48;;;;;;;2.72;1.63;;;19.10;99.90;;;;;;4998618;28;20048;-64
2023/09/20 13:45:15;;;;;;;;;;;19.10;99.90;;;;;;5001132;28;20035;-64
2023/09/20 13:47:42;;;;;;;2.60;1.60;;;19.10;99.90;;;;;;4960683;23;20485;-65
2023/09/20 13:50:10;;;;;;;3.60;1.80;;;19.00;99.90;;;;;;4942448;28;20046;-63
2023/09/20 13:52:42;;;;;;;3.75;1.30;;;19.00;99.90;;;;;;4948826;28;20065;-62
2023/09/20 14:03:05;;;;;;;5.13;1.52;;;19.00;99.90;;;;;;5362594;23;20046;-72
2023/09/20 14:05:30;;;;;;;4.60;1.38;;;19.10;99.90;;;;;;4953870;28;20632;-71
2023/09/20 14:07:56;;;;;;;3.53;1.40;;;19.10;99.90;;;;;;4947191;28;20761;-76
2023/09/20 14:10:23;;;;;;;3.55;1.27;;;19.10;99.90;;;;;;4961385;28;20078;-70
2023/09/20 14:12:50;;;;;;;2.83;1.10;;;19.00;99.90;;;;;;4952361;28;20057;-74
2023/09/20 14:16:25;;;;;;;3.88;1.52;;;19.00;99.90;;;;;;5586935;23;21063;-71
2023/09/20 14:19:11;;;;;;;3.55;1.65;;;18.90;99.90;;;;;;4960388;28;20080;-76
2023/09/20 14:22:10;;;;;;;5.53;1.50;;;18.90;99.90;;;;;;4963062;28;20108;-73
2023/09/20 14:24:40;;;;;;;2.95;1.60;;;18.90;99.90;;;;;;4958612;28;20117;-74
2023/09/20 14:27:39;;;;;;;3.50;1.30;;;18.90;99.90;;;;;;4928195;28;20534;-71
2023/09/20 14:30:24;;;;;;;3.67;1.50;;;18.90;99.90;;;;;;4984008;28;20152;-77
2023/09/20 14:33:21;;;;;;;4.50;1.60;;;18.90;99.90;;;;;;4947893;28;20048;-71
2023/09/20 14:36:09;;;;;;;5.75;1.63;;;18.90;99.90;;;;;;4962700;28;20682;-63
2023/09/20 14:38:53;;;;;;;2.38;1.38;;;18.90;99.90;;;;;;4982676;28;20496;-71
2023/09/20 14:50:12;;;;;;;3.08;1.40;;;19.00;99.90;;;;;;4991837;28;20037;-67
2023/09/20 14:52:44;;;;;;;5.10;1.65;;;18.90;99.90;;;;;;4989235;28;20074;-66
2023/09/20 14:55:12;;;;;;;6.28;1.98;;;18.90;99.90;;;;;;5001033;28;20592;-67
2023/09/20 14:57:42;;;;;;;3.05;1.23;;;18.80;99.90;;;;;;4999300;28;20056;-65
2023/09/20 15:00:16;;;;;;;7.72;1.92;;;18.80;99.90;;;;;;4996813;28;20100;-66
2023/09/20 15:02:44;;;;;;;7.85;2.25;;;18.80;99.90;;;;;;4995677;28;20041;-65
2023/09/20 15:05:11;;;;;;;3.33;1.20;;;18.80;99.90;;;;;;5004730;28;20069;-67
2023/09/20 15:13:05;;;;;;;4.10;1.08;;;18.80;99.90;;;;;;4936543;28;20062;-68
2023/09/20 15:15:51;;;;;;;6.38;1.80;;;18.80;99.90;;;;;;4948715;28;20054;-67
2023/09/20 15:18:37;;;;;;;5.27;1.47;;;18.80;99.90;;;;;;4958074;28;20086;-67
2023/09/20 15:21:23;;;;;;;4.30;1.60;;;18.80;99.90;;;;;;4942269;28;20066;-68
2023/09/20 15:24:11;;;;;;;4.93;1.52;;;18.80;99.90;;;;;;4939428;29;20443;-66
2023/09/20 15:26:37;;;;;;;3.53;1.38;;;18.80;99.90;;;;;;4937948;28;20044;-67
2023/09/20 15:29:03;;;;;;;;;;;18.70;99.90;;;;;;4947841;28;20387;-69
2023/09/20 15:31:30;;;;;;;3.90;1.40;;;18.70;99.90;;;;;;4957820;28;20386;-66